CDN91 CYYZ-CYEG
Flight info
| Callsign | CDN91 |
|---|---|
| Flight time | N/A |
| Altitude | 34000 |
| Route | AVSEP7MUSIT/05 AVSEP7 MUSIT Q917 SSM DCT AGLIN Q831 GABOV/N0452F360 DCT KOBID Q908 TAGOT Q819 REFEX DCT CAMRA IGSOX3 |
| Aircraft | A320/M-SDE3FGHIRWY/LB1 |
Departure
| Time | 2026-05-08 00:33 |
|---|---|
| Airport | Toronto Pearson International Airport (CYYZ) |
Arrival
| Time | N/A |
|---|---|
| Airport | Edmonton International Airport (CYEG) |
| Time | Latitude | Longitude | Altitude | Speed | Heading |
|---|---|---|---|---|---|
| 2026-05-07 23:40 | 43.68456 | -79.61867 | 562 ft | 0 kts | 284° |
| 2026-05-08 00:13 | 43.68455 | -79.61860 | 561 ft | 4 kts | 285° |
| 2026-05-08 00:13 | 43.68448 | -79.61824 | 563 ft | 4 kts | 287° |
| 2026-05-08 00:13 | 43.68440 | -79.61788 | 572 ft | 4 kts | 286° |
| 2026-05-08 00:13 | 43.68434 | -79.61752 | 570 ft | 4 kts | 267° |
| 2026-05-08 00:14 | 43.68434 | -79.61741 | 569 ft | 4 kts | 246° |
| 2026-05-08 00:14 | 43.68418 | -79.61771 | 569 ft | 4 kts | 228° |
| 2026-05-08 00:14 | 43.68408 | -79.61785 | 566 ft | 0 kts | 224° |
| 2026-05-08 00:18 | 43.68400 | -79.61794 | 568 ft | 5 kts | 214° |
| 2026-05-08 00:18 | 43.68345 | -79.61822 | 563 ft | 9 kts | 196° |
| 2026-05-08 00:19 | 43.68293 | -79.61833 | 567 ft | 7 kts | 178° |
| 2026-05-08 00:19 | 43.68257 | -79.61828 | 564 ft | 4 kts | 173° |
| 2026-05-08 00:19 | 43.68242 | -79.61826 | 563 ft | 1 kts | 173° |
| 2026-05-08 00:19 | 43.68230 | -79.61824 | 568 ft | 7 kts | 173° |
| 2026-05-08 00:20 | 43.68172 | -79.61818 | 565 ft | 8 kts | 187° |
| 2026-05-08 00:20 | 43.68136 | -79.61852 | 563 ft | 5 kts | 225° |
| 2026-05-08 00:20 | 43.68104 | -79.61897 | 561 ft | 8 kts | 226° |
| 2026-05-08 00:20 | 43.68062 | -79.61958 | 562 ft | 10 kts | 214° |
| 2026-05-08 00:21 | 43.68004 | -79.61991 | 566 ft | 8 kts | 200° |
| 2026-05-08 00:21 | 43.67968 | -79.62038 | 568 ft | 8 kts | 251° |
| 2026-05-08 00:21 | 43.67985 | -79.62117 | 564 ft | 12 kts | 308° |
| 2026-05-08 00:21 | 43.68050 | -79.62204 | 561 ft | 14 kts | 316° |
| 2026-05-08 00:22 | 43.68119 | -79.62294 | 568 ft | 14 kts | 317° |
| 2026-05-08 00:22 | 43.68190 | -79.62384 | 566 ft | 14 kts | 317° |
| 2026-05-08 00:22 | 43.68264 | -79.62472 | 564 ft | 14 kts | 321° |
| 2026-05-08 00:22 | 43.68335 | -79.62560 | 567 ft | 13 kts | 317° |
| 2026-05-08 00:23 | 43.68406 | -79.62654 | 562 ft | 16 kts | 316° |
| 2026-05-08 00:23 | 43.68498 | -79.62773 | 561 ft | 20 kts | 317° |
| 2026-05-08 00:23 | 43.68605 | -79.62914 | 561 ft | 22 kts | 316° |
| 2026-05-08 00:23 | 43.68715 | -79.63056 | 561 ft | 21 kts | 317° |
| 2026-05-08 00:24 | 43.68818 | -79.63190 | 564 ft | 20 kts | 316° |
| 2026-05-08 00:24 | 43.68917 | -79.63321 | 563 ft | 19 kts | 316° |
| 2026-05-08 00:24 | 43.69009 | -79.63439 | 564 ft | 18 kts | 316° |
| 2026-05-08 00:24 | 43.69078 | -79.63552 | 571 ft | 13 kts | 274° |
| 2026-05-08 00:25 | 43.69072 | -79.63586 | 565 ft | 0 kts | 245° |
| 2026-05-08 00:25 | 43.69062 | -79.63611 | 569 ft | 8 kts | 238° |
| 2026-05-08 00:25 | 43.69006 | -79.63695 | 572 ft | 14 kts | 226° |
| 2026-05-08 00:25 | 43.68924 | -79.63814 | 574 ft | 21 kts | 226° |
| 2026-05-08 00:26 | 43.68813 | -79.63974 | 573 ft | 23 kts | 226° |
| 2026-05-08 00:26 | 43.68700 | -79.64138 | 566 ft | 23 kts | 226° |
| 2026-05-08 00:26 | 43.68591 | -79.64297 | 571 ft | 23 kts | 226° |
| 2026-05-08 00:26 | 43.68478 | -79.64460 | 566 ft | 23 kts | 226° |
| 2026-05-08 00:27 | 43.68373 | -79.64614 | 568 ft | 22 kts | 226° |
| 2026-05-08 00:27 | 43.68275 | -79.64755 | 570 ft | 20 kts | 226° |
| 2026-05-08 00:27 | 43.68168 | -79.64911 | 571 ft | 24 kts | 225° |
| 2026-05-08 00:27 | 43.68051 | -79.65080 | 567 ft | 25 kts | 226° |
| 2026-05-08 00:28 | 43.67934 | -79.65249 | 571 ft | 24 kts | 226° |
| 2026-05-08 00:28 | 43.67821 | -79.65414 | 566 ft | 23 kts | 226° |
| 2026-05-08 00:28 | 43.67717 | -79.65566 | 571 ft | 21 kts | 226° |
| 2026-05-08 00:28 | 43.67618 | -79.65709 | 574 ft | 20 kts | 226° |
| 2026-05-08 00:29 | 43.67521 | -79.65849 | 567 ft | 20 kts | 226° |
| 2026-05-08 00:29 | 43.67423 | -79.65992 | 569 ft | 20 kts | 226° |
| 2026-05-08 00:29 | 43.67324 | -79.66135 | 563 ft | 20 kts | 225° |
| 2026-05-08 00:29 | 43.67289 | -79.66257 | 564 ft | 12 kts | 296° |
| 2026-05-08 00:30 | 43.67327 | -79.66310 | 567 ft | 0 kts | 328° |
| 2026-05-08 00:32 | 43.67330 | -79.66314 | 564 ft | 3 kts | 328° |
| 2026-05-08 00:32 | 43.67398 | -79.66360 | 560 ft | 15 kts | 1° |
| 2026-05-08 00:32 | 43.67490 | -79.66298 | 565 ft | 18 kts | 46° |
| 2026-05-08 00:32 | 43.67700 | -79.65989 | 571 ft | 78 kts | 46° |
| 2026-05-08 00:33 | 43.68220 | -79.65239 | 570 ft | 135 kts | 46° |
| 2026-05-08 00:33 | 43.68989 | -79.64165 | 584 ft | 176 kts | 44° |
| 2026-05-08 00:33 | 43.69866 | -79.62958 | 1165 ft | 174 kts | 45° |
| 2026-05-08 00:33 | 43.70697 | -79.61759 | 1849 ft | 177 kts | 44° |
| 2026-05-08 00:34 | 43.71669 | -79.60649 | 2271 ft | 189 kts | 33° |
| 2026-05-08 00:34 | 43.72795 | -79.59592 | 2529 ft | 207 kts | 31° |
| 2026-05-08 00:34 | 43.74085 | -79.58401 | 2747 ft | 232 kts | 32° |
| 2026-05-08 00:34 | 43.75457 | -79.57102 | 3052 ft | 254 kts | 33° |
| 2026-05-08 00:35 | 43.76927 | -79.55662 | 3702 ft | 262 kts | 33° |
| 2026-05-08 00:35 | 43.78410 | -79.54174 | 4468 ft | 266 kts | 33° |
| 2026-05-08 00:35 | 43.80075 | -79.53073 | 5181 ft | 267 kts | 9° |
| 2026-05-08 00:35 | 43.81908 | -79.53038 | 5894 ft | 265 kts | 344° |
| 2026-05-08 00:36 | 43.83569 | -79.54078 | 6613 ft | 263 kts | 319° |
| 2026-05-08 00:36 | 43.84746 | -79.55968 | 7329 ft | 260 kts | 295° |
| 2026-05-08 00:36 | 43.85292 | -79.58328 | 8081 ft | 259 kts | 280° |
| 2026-05-08 00:36 | 43.85667 | -79.60771 | 8875 ft | 259 kts | 280° |
| 2026-05-08 00:37 | 43.86038 | -79.63177 | 9654 ft | 260 kts | 280° |
| 2026-05-08 00:37 | 43.86421 | -79.65641 | 10294 ft | 266 kts | 280° |
| 2026-05-08 00:37 | 43.86829 | -79.68256 | 10444 ft | 289 kts | 280° |
| 2026-05-08 00:38 | 43.87720 | -79.73964 | 11270 ft | 311 kts | 280° |
| 2026-05-08 00:38 | 43.88177 | -79.76884 | 11904 ft | 314 kts | 280° |
| 2026-05-08 00:38 | 43.88642 | -79.79850 | 12572 ft | 317 kts | 280° |
| 2026-05-08 00:38 | 43.89109 | -79.82852 | 13152 ft | 322 kts | 281° |
| 2026-05-08 00:39 | 43.89586 | -79.85910 | 13743 ft | 326 kts | 281° |
| 2026-05-08 00:39 | 43.90066 | -79.89001 | 14294 ft | 329 kts | 281° |
| 2026-05-08 00:39 | 43.90548 | -79.92118 | 14843 ft | 332 kts | 281° |
| 2026-05-08 00:39 | 43.91034 | -79.95267 | 15395 ft | 335 kts | 281° |
| 2026-05-08 00:40 | 43.91522 | -79.98437 | 15937 ft | 338 kts | 281° |
| 2026-05-08 00:40 | 43.92011 | -80.01635 | 16480 ft | 341 kts | 281° |
| 2026-05-08 00:40 | 43.92504 | -80.04861 | 17028 ft | 343 kts | 282° |
| 2026-05-08 00:40 | 43.93014 | -80.08067 | 17563 ft | 346 kts | 285° |
| 2026-05-08 00:41 | 43.93850 | -80.11208 | 18084 ft | 350 kts | 295° |
| 2026-05-08 00:41 | 43.95123 | -80.14094 | 18557 ft | 354 kts | 306° |
| 2026-05-08 00:41 | 43.96616 | -80.16827 | 19026 ft | 356 kts | 306° |
| 2026-05-08 00:41 | 43.98112 | -80.19574 | 19518 ft | 358 kts | 306° |
| 2026-05-08 00:42 | 43.99618 | -80.22346 | 19996 ft | 360 kts | 306° |
| 2026-05-08 00:42 | 44.01124 | -80.25133 | 20469 ft | 363 kts | 306° |
| 2026-05-08 00:42 | 44.02642 | -80.27949 | 20912 ft | 366 kts | 306° |
| 2026-05-08 00:42 | 44.04177 | -80.30785 | 21366 ft | 369 kts | 306° |
| 2026-05-08 00:43 | 44.05719 | -80.33643 | 21815 ft | 371 kts | 306° |
| 2026-05-08 00:43 | 44.06749 | -80.35556 | 22108 ft | 373 kts | 306° |
| 2026-05-08 00:43 | 44.08818 | -80.39403 | 22686 ft | 376 kts | 306° |
| 2026-05-08 00:43 | 44.10386 | -80.42327 | 23104 ft | 379 kts | 306° |
| 2026-05-08 00:44 | 44.11960 | -80.45268 | 23515 ft | 381 kts | 306° |
| 2026-05-08 00:44 | 44.13561 | -80.48248 | 23854 ft | 384 kts | 308° |
| 2026-05-08 00:44 | 44.14727 | -80.50098 | 24074 ft | 386 kts | 312° |
| 2026-05-08 00:44 | 44.17199 | -80.53752 | 24525 ft | 388 kts | 312° |
| 2026-05-08 00:45 | 44.18420 | -80.55565 | 24746 ft | 389 kts | 311° |
| 2026-05-08 00:45 | 44.20273 | -80.58319 | 25087 ft | 390 kts | 311° |
| 2026-05-08 00:45 | 44.22137 | -80.61085 | 25410 ft | 392 kts | 311° |
| 2026-05-08 00:45 | 44.24607 | -80.64766 | 25821 ft | 394 kts | 311° |
| 2026-05-08 00:46 | 44.26484 | -80.67571 | 26110 ft | 397 kts | 311° |
| 2026-05-08 00:46 | 44.28371 | -80.70394 | 26408 ft | 398 kts | 311° |
| 2026-05-08 00:46 | 44.29650 | -80.72304 | 26617 ft | 399 kts | 311° |
| 2026-05-08 00:46 | 44.31523 | -80.75099 | 26913 ft | 401 kts | 311° |
| 2026-05-08 00:47 | 44.33431 | -80.77954 | 27208 ft | 403 kts | 311° |
| 2026-05-08 00:47 | 44.35348 | -80.80830 | 27495 ft | 404 kts | 311° |
| 2026-05-08 00:47 | 44.37264 | -80.83718 | 27780 ft | 406 kts | 311° |
| 2026-05-08 00:47 | 44.39161 | -80.86573 | 28055 ft | 408 kts | 311° |
| 2026-05-08 00:48 | 44.41094 | -80.89479 | 28325 ft | 409 kts | 311° |
| 2026-05-08 00:48 | 44.43035 | -80.92397 | 28592 ft | 411 kts | 311° |
| 2026-05-08 00:48 | 44.44982 | -80.95328 | 28870 ft | 412 kts | 311° |
| 2026-05-08 00:48 | 44.46932 | -80.98272 | 29123 ft | 413 kts | 311° |
| 2026-05-08 00:49 | 44.48860 | -81.01188 | 29366 ft | 414 kts | 311° |
| 2026-05-08 00:49 | 44.50774 | -81.04087 | 29594 ft | 416 kts | 311° |
| 2026-05-08 00:49 | 44.52740 | -81.07066 | 29820 ft | 417 kts | 311° |
| 2026-05-08 00:49 | 44.54715 | -81.10067 | 30029 ft | 418 kts | 311° |
| 2026-05-08 00:50 | 44.56685 | -81.13059 | 30272 ft | 418 kts | 310° |
| 2026-05-08 00:50 | 44.58653 | -81.16054 | 30525 ft | 417 kts | 310° |
| 2026-05-08 00:50 | 44.60618 | -81.19055 | 30760 ft | 417 kts | 310° |
| 2026-05-08 00:50 | 44.62580 | -81.22047 | 30987 ft | 417 kts | 310° |
| 2026-05-08 00:51 | 44.64542 | -81.25037 | 31217 ft | 417 kts | 310° |
| 2026-05-08 00:51 | 44.66480 | -81.27992 | 31462 ft | 416 kts | 310° |
| 2026-05-08 00:51 | 44.68441 | -81.30983 | 31680 ft | 417 kts | 310° |
| 2026-05-08 00:51 | 44.70410 | -81.33981 | 31894 ft | 417 kts | 310° |
| 2026-05-08 00:52 | 44.72375 | -81.36982 | 32117 ft | 417 kts | 310° |
| 2026-05-08 00:52 | 44.74335 | -81.39983 | 32352 ft | 417 kts | 310° |
| 2026-05-08 00:52 | 44.76291 | -81.42983 | 32593 ft | 416 kts | 310° |
| 2026-05-08 00:52 | 44.78250 | -81.45992 | 32817 ft | 416 kts | 309° |
| 2026-05-08 00:53 | 44.80194 | -81.48986 | 33042 ft | 416 kts | 309° |
| 2026-05-08 00:53 | 44.82125 | -81.51958 | 33266 ft | 415 kts | 309° |
| 2026-05-08 00:53 | 44.84076 | -81.54960 | 33483 ft | 415 kts | 309° |
| 2026-05-08 00:53 | 44.86021 | -81.57952 | 33722 ft | 415 kts | 309° |
| 2026-05-08 00:54 | 44.87969 | -81.60957 | 33910 ft | 415 kts | 309° |
| 2026-05-08 00:54 | 44.91840 | -81.66941 | 33962 ft | 411 kts | 309° |
| 2026-05-08 00:55 | 44.95678 | -81.72893 | 33951 ft | 410 kts | 309° |
| 2026-05-08 00:55 | 44.99490 | -81.78816 | 33955 ft | 410 kts | 309° |
| 2026-05-08 00:56 | 45.03333 | -81.84783 | 33954 ft | 410 kts | 309° |
| 2026-05-08 00:56 | 45.07168 | -81.90754 | 33948 ft | 410 kts | 309° |
| 2026-05-08 00:57 | 45.10988 | -81.96740 | 33960 ft | 410 kts | 309° |
| 2026-05-08 00:57 | 45.14792 | -82.02699 | 33956 ft | 410 kts | 309° |
| 2026-05-08 00:58 | 45.18619 | -82.08700 | 33947 ft | 410 kts | 309° |
| 2026-05-08 00:58 | 45.22440 | -82.14720 | 33947 ft | 410 kts | 309° |
| 2026-05-08 00:59 | 45.26257 | -82.20735 | 33946 ft | 410 kts | 309° |